Jacob Michael Eckstein — WDH7166 — position and weather

sailwx.info

Track history (hours):
 
Tides and Currents Weather Stations Pressure Air Temp Water Temp Dewpoint Dewpoint Depression Visibility Wind Speed Wind Dir Waves Ship Positions

Jacob Michael Eckstein

Owner: Marquette Transportation Co. LLC, Paducah, KY. More information available from US FCC via Universal Licensing System and Coast Guard Vessel Documentation Center.

Last reported at 2018-Feb-23 19:36 UTC. Time now 2018-May-21 05:27 UTC.
Position N 38°37' W 090°11'.
Warning: this ship's position is months out of date.

Type: Towing. MMSI: 366986640.

Date/timePositionNaut miles runAvg speedWind from/ knotsBaromVisibWave heightAir tempDewpointWater temp
2018-Feb-23 19:36N 38°37' W 090°11'1 9.6
2018-Feb-23 19:28N 38°38' W 090°11'3 7.4
2018-Feb-23 19:00N 38°42' W 090°11'1 1.2
2018-Feb-23 18:28N 38°42' W 090°11'1 1.4
2018-Feb-23 18:00N 38°43' W 090°10'1 1.7
2018-Feb-23 17:30N 38°44' W 090°10'1 1.6
2018-Feb-23 17:01N 38°44' W 090°09'1 2.6
2018-Feb-23 16:30N 38°45' W 090°09'2 4.0
2018-Feb-23 15:58N 38°47' W 090°07'3 7.3
2018-Feb-23 15:30N 38°51' W 090°06'2 4.3
2018-Feb-23 15:01N 38°52' W 090°09'0 0.1
2018-Feb-23 14:28N 38°52' W 090°09'0 0.0
2018-Feb-23 14:01N 38°52' W 090°09'0 0.0
2018-Feb-23 13:24N 38°52' W 090°09'0 0.0
2018-Feb-23 12:46N 38°52' W 090°09'0 0.0
2018-Feb-23 12:24N 38°52' W 090°09'0 0.0
2018-Feb-23 12:01N 38°52' W 090°09'0 0.1
2018-Feb-23 11:30N 38°52' W 090°09'0 0.0
2018-Feb-23 11:00N 38°52' W 090°09'0 0.2
2018-Feb-23 10:30N 38°52' W 090°09'0 0.3
2018-Feb-23 10:00N 38°52' W 090°09'0 0.0
2018-Feb-23 09:30N 38°52' W 090°09'0 0.3
2018-Feb-23 09:00N 38°52' W 090°09'0 0.6
2018-Feb-23 08:30N 38°52' W 090°09'0 0.1
2018-Feb-23 08:00N 38°52' W 090°09'0 0.0
2018-Feb-23 07:30N 38°52' W 090°09'0 0.4
2018-Feb-23 07:00N 38°52' W 090°09'0 0.2
2018-Feb-23 06:30N 38°52' W 090°09'0 0.7
2018-Feb-23 06:01N 38°52' W 090°09'0 0.0
2018-Feb-23 05:31N 38°52' W 090°09'0 0.3
2018-Feb-23 05:01N 38°52' W 090°09'0 0.1
2018-Feb-23 04:29N 38°52' W 090°09'1 2.8
2018-Feb-23 04:00N 38°53' W 090°11'3 5.7
2018-Feb-23 03:30N 38°55' W 090°13'0 0.0
2018-Feb-23 03:01N 38°55' W 090°13'0 0.0
2018-Feb-23 02:31N 38°55' W 090°13'0 0.0
2018-Feb-23 02:01N 38°55' W 090°13'0 0.0
2018-Feb-23 01:30N 38°55' W 090°13'0 0.4
2018-Feb-23 01:00N 38°55' W 090°14'1 1.7
2018-Feb-23 00:31N 38°55' W 090°15'0 0.0
2018-Feb-23 00:01N 38°55' W 090°15'0 0.0
2018-Feb-22 23:30N 38°55' W 090°15'0 0.0
2018-Feb-22 23:00N 38°55' W 090°15'0 0.0
2018-Feb-22 22:31N 38°55' W 090°15'0 0.0
2018-Feb-22 22:01N 38°55' W 090°15'0 0.0
2018-Feb-22 21:30N 38°55' W 090°15'0 0.0
2018-Feb-22 20:59N 38°55' W 090°15'0 0.0
2018-Feb-22 20:30N 38°55' W 090°15'0 0.0
2018-Feb-22 20:00N 38°55' W 090°15'0 0.0
2018-Feb-22 19:30N 38°55' W 090°15'0 0.0
2018-Feb-22 19:00N 38°55' W 090°15'0 0.0
2018-Feb-22 18:30N 38°55' W 090°15'0 0.0
2018-Feb-22 18:00N 38°55' W 090°15'0 0.0
2018-Feb-22 17:30N 38°55' W 090°15'0 0.0
2018-Feb-22 17:00N 38°55' W 090°15'0 0.0
2018-Feb-22 16:30N 38°55' W 090°15'0 0.0
2018-Feb-22 16:00N 38°55' W 090°15'1 2.1
2018-Feb-22 15:30N 38°55' W 090°16'4 7.2
2018-Feb-22 15:00N 38°56' W 090°20'4 7.7
2018-Feb-22 14:30N 38°58' W 090°25'4 7.1
2018-Feb-22 14:00N 38°58' W 090°30'3 5.1
2018-Feb-22 13:30N 38°58' W 090°33'3 6.4
2018-Feb-22 13:00N 39°01' W 090°35'3 5.1
2018-Feb-22 12:30N 39°03' W 090°35'2 4.9
2018-Feb-22 12:00N 39°06' W 090°36'3 5.6
2018-Feb-22 11:29N 39°09' W 090°37'3 5.3
2018-Feb-22 11:00N 39°11' W 090°36'4 4.9
2018-Feb-22 10:10N 39°15' W 090°36'  
2018-Feb-16 00:37N 39°12' W 090°36'1 4.3
2018-Feb-16 00:30N 39°12' W 090°36'2 4.7
2018-Feb-15 23:59N 39°10' W 090°37'2 4.9
2018-Feb-15 23:30N 39°07' W 090°36'3 5.4
2018-Feb-15 23:00N 39°05' W 090°35'3 4.5
2018-Feb-15 22:21N 39°02' W 090°34'2 5.5
2018-Feb-15 22:00N 38°60' W 090°34'3 5.6
2018-Feb-15 21:30N 38°58' W 090°32'2 4.8
2018-Feb-15 21:00N 38°58' W 090°29'3 5.5
2018-Feb-15 20:30N 38°58' W 090°26'3 6.1
2018-Feb-15 20:00N 38°57' W 090°22'3 6.2
2018-Feb-15 19:30N 38°55' W 090°19'3 6.3
2018-Feb-15 19:00N 38°55' W 090°14'3 5.7
2018-Feb-15 18:30N 38°53' W 090°12'2 3.7
2018-Feb-15 18:00N 38°52' W 090°10'1 1.1
2018-Feb-15 17:30N 38°52' W 090°09'0 0.2
2018-Feb-15 16:57N 38°52' W 090°09'0 0.0
2018-Feb-15 16:30N 38°52' W 090°09'0 0.2
2018-Feb-15 16:00N 38°52' W 090°09'0 0.3
2018-Feb-15 15:30N 38°52' W 090°09'0 0.7
2018-Feb-15 15:00N 38°52' W 090°09'0 0.4
2018-Feb-15 14:29N 38°52' W 090°09'0 0.0
2018-Feb-15 14:00N 38°52' W 090°09'0 0.0
2018-Feb-15 13:30N 38°52' W 090°09'0 0.1
2018-Feb-15 13:00N 38°52' W 090°09'0 0.0
2018-Feb-15 12:30N 38°52' W 090°09'0 0.5
2018-Feb-15 12:00N 38°52' W 090°09'0 0.7
2018-Feb-15 11:30N 38°52' W 090°09'0 0.0
2018-Feb-15 11:00N 38°52' W 090°09'0 0.0
2018-Feb-15 10:30N 38°52' W 090°09'0 0.0
2018-Feb-15 09:59N 38°52' W 090°09'0 0.0
2018-Feb-15 09:30N 38°52' W 090°09'0 0.0
2018-Feb-15 09:00N 38°52' W 090°09'0 0.0
2018-Feb-15 08:30N 38°52' W 090°09'0 0.0
2018-Feb-15 08:00N 38°52' W 090°09'0 0.0
2018-Feb-15 07:30N 38°52' W 090°09'0 0.0
2018-Feb-15 07:00N 38°52' W 090°09'0 0.6
2018-Feb-15 06:30N 38°52' W 090°08'1 1.6
2018-Feb-15 06:00N 38°51' W 090°08'0 0.0
2018-Feb-15 05:29N 38°51' W 090°08'0 0.0
2018-Feb-15 04:54N 38°51' W 090°08'0 0.0
2018-Feb-15 04:26N 38°51' W 090°08'0 1.1
2018-Feb-15 04:00N 38°51' W 090°07'3 5.2
2018-Feb-15 03:30N 38°49' W 090°07'7 1.7
2018-Feb-14 23:45N 38°43' W 090°10'0 1.1
2018-Feb-14 23:18N 38°42' W 090°11'0 0.8
2018-Feb-14 22:46N 38°42' W 090°11'0 1.8
2018-Feb-14 22:30N 38°42' W 090°11'2 3.4
2018-Feb-14 22:00N 38°40' W 090°11'1 1.5
2018-Feb-14 21:30N 38°39' W 090°11'0 0.0
2018-Feb-14 21:00N 38°39' W 090°11'0 0.0
2018-Feb-14 20:30N 38°39' W 090°11'0 0.3
2018-Feb-14 20:00N 38°39' W 090°11'2 4.6
2018-Feb-14 19:30N 38°37' W 090°11'6 0.3
2018-Feb-14 03:38N 38°32' W 090°15'5 7.0
2018-Feb-14 02:51N 38°37' W 090°11'3 7.0
2018-Feb-14 02:27N 38°39' W 090°11'2 4.9
2018-Feb-14 02:00N 38°42' W 090°11'1 1.3
2018-Feb-14 01:30N 38°42' W 090°11'1 2.0
2018-Feb-14 01:00N 38°43' W 090°10'1 2.5
2018-Feb-14 00:30N 38°44' W 090°09'0 0.6
2018-Feb-14 00:00N 38°44' W 090°09'1 1.5
2018-Feb-13 23:24N 38°45' W 090°09'2 3.6
2018-Feb-13 22:45N 38°47' W 090°07'1 5.8
2018-Feb-13 22:30N 38°49' W 090°07'3 5.5
2018-Feb-13 22:00N 38°51' W 090°07'1 2.7
2018-Feb-13 21:28N 38°52' W 090°09'0 0.1
2018-Feb-13 21:00N 38°52' W 090°09'0 0.2
2018-Feb-13 20:23N 38°52' W 090°09'0 0.0
2018-Feb-13 20:00N 38°52' W 090°09'  
Track history (hours):
 
Tides and Currents Weather Stations Pressure Air Temp Water Temp Dewpoint Dewpoint Depression Visibility Wind Speed Wind Dir Waves Ship Positions

Jacob Michael Eckstein

Owner: Marquette Transportation Co. LLC, Paducah, KY. More information available from US FCC via Universal Licensing System and Coast Guard Vessel Documentation Center.

Last reported at 2018-Feb-23 19:36 UTC. Time now 2018-May-21 05:27 UTC.
Position N 38°37' W 090°11'.
Warning: this ship's position is months out of date.

Type: Towing. MMSI: 366986640.

Date/timePositionNaut miles runAvg speedWind from/ knotsBaromVisibWave heightAir tempDewpointWater temp
2018-Feb-23 19:36N 38°37' W 090°11'1 9.6
2018-Feb-23 19:28N 38°38' W 090°11'3 7.4
2018-Feb-23 19:00N 38°42' W 090°11'1 1.2
2018-Feb-23 18:28N 38°42' W 090°11'1 1.4
2018-Feb-23 18:00N 38°43' W 090°10'1 1.7
2018-Feb-23 17:30N 38°44' W 090°10'1 1.6
2018-Feb-23 17:01N 38°44' W 090°09'1 2.6
2018-Feb-23 16:30N 38°45' W 090°09'2 4.0
2018-Feb-23 15:58N 38°47' W 090°07'3 7.3
2018-Feb-23 15:30N 38°51' W 090°06'2 4.3
2018-Feb-23 15:01N 38°52' W 090°09'0 0.1
2018-Feb-23 14:28N 38°52' W 090°09'0 0.0
2018-Feb-23 14:01N 38°52' W 090°09'0 0.0
2018-Feb-23 13:24N 38°52' W 090°09'0 0.0
2018-Feb-23 12:46N 38°52' W 090°09'0 0.0
2018-Feb-23 12:24N 38°52' W 090°09'0 0.0
2018-Feb-23 12:01N 38°52' W 090°09'0 0.1
2018-Feb-23 11:30N 38°52' W 090°09'0 0.0
2018-Feb-23 11:00N 38°52' W 090°09'0 0.2
2018-Feb-23 10:30N 38°52' W 090°09'0 0.3
2018-Feb-23 10:00N 38°52' W 090°09'0 0.0
2018-Feb-23 09:30N 38°52' W 090°09'0 0.3
2018-Feb-23 09:00N 38°52' W 090°09'0 0.6
2018-Feb-23 08:30N 38°52' W 090°09'0 0.1
2018-Feb-23 08:00N 38°52' W 090°09'0 0.0
2018-Feb-23 07:30N 38°52' W 090°09'0 0.4
2018-Feb-23 07:00N 38°52' W 090°09'0 0.2
2018-Feb-23 06:30N 38°52' W 090°09'0 0.7
2018-Feb-23 06:01N 38°52' W 090°09'0 0.0
2018-Feb-23 05:31N 38°52' W 090°09'0 0.3
2018-Feb-23 05:01N 38°52' W 090°09'0 0.1
2018-Feb-23 04:29N 38°52' W 090°09'1 2.8
2018-Feb-23 04:00N 38°53' W 090°11'3 5.7
2018-Feb-23 03:30N 38°55' W 090°13'0 0.0
2018-Feb-23 03:01N 38°55' W 090°13'0 0.0
2018-Feb-23 02:31N 38°55' W 090°13'0 0.0
2018-Feb-23 02:01N 38°55' W 090°13'0 0.0
2018-Feb-23 01:30N 38°55' W 090°13'0 0.4
2018-Feb-23 01:00N 38°55' W 090°14'1 1.7
2018-Feb-23 00:31N 38°55' W 090°15'0 0.0
2018-Feb-23 00:01N 38°55' W 090°15'0 0.0
2018-Feb-22 23:30N 38°55' W 090°15'0 0.0
2018-Feb-22 23:00N 38°55' W 090°15'0 0.0
2018-Feb-22 22:31N 38°55' W 090°15'0 0.0
2018-Feb-22 22:01N 38°55' W 090°15'0 0.0
2018-Feb-22 21:30N 38°55' W 090°15'0 0.0
2018-Feb-22 20:59N 38°55' W 090°15'0 0.0
2018-Feb-22 20:30N 38°55' W 090°15'0 0.0
2018-Feb-22 20:00N 38°55' W 090°15'0 0.0
2018-Feb-22 19:30N 38°55' W 090°15'0 0.0
2018-Feb-22 19:00N 38°55' W 090°15'0 0.0
2018-Feb-22 18:30N 38°55' W 090°15'0 0.0
2018-Feb-22 18:00N 38°55' W 090°15'0 0.0
2018-Feb-22 17:30N 38°55' W 090°15'0 0.0
2018-Feb-22 17:00N 38°55' W 090°15'0 0.0
2018-Feb-22 16:30N 38°55' W 090°15'0 0.0
2018-Feb-22 16:00N 38°55' W 090°15'1 2.1
2018-Feb-22 15:30N 38°55' W 090°16'4 7.2
2018-Feb-22 15:00N 38°56' W 090°20'4 7.7
2018-Feb-22 14:30N 38°58' W 090°25'4 7.1
2018-Feb-22 14:00N 38°58' W 090°30'3 5.1
2018-Feb-22 13:30N 38°58' W 090°33'3 6.4
2018-Feb-22 13:00N 39°01' W 090°35'3 5.1
2018-Feb-22 12:30N 39°03' W 090°35'2 4.9
2018-Feb-22 12:00N 39°06' W 090°36'3 5.6
2018-Feb-22 11:29N 39°09' W 090°37'3 5.3
2018-Feb-22 11:00N 39°11' W 090°36'4 4.9
2018-Feb-22 10:10N 39°15' W 090°36'  
2018-Feb-16 00:37N 39°12' W 090°36'1 4.3
2018-Feb-16 00:30N 39°12' W 090°36'2 4.7
2018-Feb-15 23:59N 39°10' W 090°37'2 4.9
2018-Feb-15 23:30N 39°07' W 090°36'3 5.4
2018-Feb-15 23:00N 39°05' W 090°35'3 4.5
2018-Feb-15 22:21N 39°02' W 090°34'2 5.5
2018-Feb-15 22:00N 38°60' W 090°34'3 5.6
2018-Feb-15 21:30N 38°58' W 090°32'2 4.8
2018-Feb-15 21:00N 38°58' W 090°29'3 5.5
2018-Feb-15 20:30N 38°58' W 090°26'3 6.1
2018-Feb-15 20:00N 38°57' W 090°22'3 6.2
2018-Feb-15 19:30N 38°55' W 090°19'3 6.3
2018-Feb-15 19:00N 38°55' W 090°14'3 5.7
2018-Feb-15 18:30N 38°53' W 090°12'2 3.7
2018-Feb-15 18:00N 38°52' W 090°10'1 1.1
2018-Feb-15 17:30N 38°52' W 090°09'0 0.2
2018-Feb-15 16:57N 38°52' W 090°09'0 0.0
2018-Feb-15 16:30N 38°52' W 090°09'0 0.2
2018-Feb-15 16:00N 38°52' W 090°09'0 0.3
2018-Feb-15 15:30N 38°52' W 090°09'0 0.7
2018-Feb-15 15:00N 38°52' W 090°09'0 0.4
2018-Feb-15 14:29N 38°52' W 090°09'0 0.0
2018-Feb-15 14:00N 38°52' W 090°09'0 0.0
2018-Feb-15 13:30N 38°52' W 090°09'0 0.1
2018-Feb-15 13:00N 38°52' W 090°09'0 0.0
2018-Feb-15 12:30N 38°52' W 090°09'0 0.5
2018-Feb-15 12:00N 38°52' W 090°09'0 0.7
2018-Feb-15 11:30N 38°52' W 090°09'0 0.0
2018-Feb-15 11:00N 38°52' W 090°09'0 0.0
2018-Feb-15 10:30N 38°52' W 090°09'0 0.0
2018-Feb-15 09:59N 38°52' W 090°09'0 0.0
2018-Feb-15 09:30N 38°52' W 090°09'0 0.0
2018-Feb-15 09:00N 38°52' W 090°09'0 0.0
2018-Feb-15 08:30N 38°52' W 090°09'0 0.0
2018-Feb-15 08:00N 38°52' W 090°09'0 0.0
2018-Feb-15 07:30N 38°52' W 090°09'0 0.0
2018-Feb-15 07:00N 38°52' W 090°09'0 0.6
2018-Feb-15 06:30N 38°52' W 090°08'1 1.6
2018-Feb-15 06:00N 38°51' W 090°08'0 0.0
2018-Feb-15 05:29N 38°51' W 090°08'0 0.0
2018-Feb-15 04:54N 38°51' W 090°08'0 0.0
2018-Feb-15 04:26N 38°51' W 090°08'0 1.1
2018-Feb-15 04:00N 38°51' W 090°07'3 5.2
2018-Feb-15 03:30N 38°49' W 090°07'7 1.7
2018-Feb-14 23:45N 38°43' W 090°10'0 1.1
2018-Feb-14 23:18N 38°42' W 090°11'0 0.8
2018-Feb-14 22:46N 38°42' W 090°11'0 1.8
2018-Feb-14 22:30N 38°42' W 090°11'2 3.4
2018-Feb-14 22:00N 38°40' W 090°11'1 1.5
2018-Feb-14 21:30N 38°39' W 090°11'0 0.0
2018-Feb-14 21:00N 38°39' W 090°11'0 0.0
2018-Feb-14 20:30N 38°39' W 090°11'0 0.3
2018-Feb-14 20:00N 38°39' W 090°11'2 4.6
2018-Feb-14 19:30N 38°37' W 090°11'6 0.3
2018-Feb-14 03:38N 38°32' W 090°15'5 7.0
2018-Feb-14 02:51N 38°37' W 090°11'3 7.0
2018-Feb-14 02:27N 38°39' W 090°11'2 4.9
2018-Feb-14 02:00N 38°42' W 090°11'1 1.3
2018-Feb-14 01:30N 38°42' W 090°11'1 2.0
2018-Feb-14 01:00N 38°43' W 090°10'1 2.5
2018-Feb-14 00:30N 38°44' W 090°09'0 0.6
2018-Feb-14 00:00N 38°44' W 090°09'1 1.5
2018-Feb-13 23:24N 38°45' W 090°09'2 3.6
2018-Feb-13 22:45N 38°47' W 090°07'1 5.8
2018-Feb-13 22:30N 38°49' W 090°07'3 5.5
2018-Feb-13 22:00N 38°51' W 090°07'1 2.7
2018-Feb-13 21:28N 38°52' W 090°09'0 0.1
2018-Feb-13 21:00N 38°52' W 090°09'0 0.2
2018-Feb-13 20:23N 38°52' W 090°09'0 0.0
2018-Feb-13 20:00N 38°52' W 090°09'  

Dump ship's entire track history